createdAt,value
2022-10-22T00:00:15.923Z,11.9
2022-10-22T00:01:15.955Z,11.87
2022-10-22T00:02:15.991Z,11.87
2022-10-22T00:03:16.020Z,11.88
2022-10-22T00:04:16.047Z,11.88
2022-10-22T00:05:16.069Z,11.87
2022-10-22T00:06:16.107Z,11.87
2022-10-22T00:07:16.142Z,11.82
2022-10-22T00:08:16.172Z,11.79
2022-10-22T00:09:16.285Z,11.79
2022-10-22T00:10:16.237Z,11.76
2022-10-22T00:11:16.270Z,11.75
2022-10-22T00:12:16.301Z,11.74
2022-10-22T00:13:16.340Z,11.71
2022-10-22T00:14:16.371Z,11.7
2022-10-22T00:15:16.408Z,11.7
2022-10-22T00:16:16.444Z,11.68
2022-10-22T00:17:16.479Z,11.68
2022-10-22T00:18:16.509Z,11.68
2022-10-22T00:19:16.547Z,11.7
2022-10-22T00:20:16.579Z,11.73
2022-10-22T00:21:16.630Z,11.73
2022-10-22T00:22:16.664Z,11.74
2022-10-22T00:23:16.691Z,11.72
2022-10-22T00:24:16.730Z,11.73
2022-10-22T00:25:16.773Z,11.67
2022-10-22T00:26:16.817Z,11.68
2022-10-22T00:27:16.849Z,11.67
2022-10-22T00:28:16.879Z,11.68
2022-10-22T00:29:16.913Z,11.66
2022-10-22T00:30:16.955Z,11.6
2022-10-22T00:31:16.993Z,11.6
2022-10-22T00:32:17.035Z,11.61
2022-10-22T00:33:17.069Z,11.61
2022-10-22T00:34:17.102Z,11.6
2022-10-22T00:35:17.145Z,11.61
2022-10-22T00:36:17.179Z,11.57
2022-10-22T00:37:17.214Z,11.55
2022-10-22T00:38:17.245Z,11.56
2022-10-22T00:39:17.287Z,11.54
2022-10-22T00:40:17.314Z,11.54
2022-10-22T00:41:17.352Z,11.54
2022-10-22T00:42:17.386Z,11.54
2022-10-22T00:43:17.424Z,11.54
2022-10-22T00:44:17.460Z,11.49
2022-10-22T00:45:17.489Z,11.5
2022-10-22T00:46:17.518Z,11.5
2022-10-22T00:47:17.553Z,11.43
2022-10-22T00:48:17.597Z,11.37
2022-10-22T00:49:17.619Z,11.37
2022-10-22T00:50:17.649Z,11.34
2022-10-22T00:51:17.689Z,11.35
2022-10-22T00:52:17.737Z,11.35
2022-10-22T00:53:17.773Z,11.37
2022-10-22T00:54:17.812Z,11.42
2022-10-22T00:55:17.879Z,11.41
2022-10-22T00:56:17.885Z,11.42
2022-10-22T00:57:17.922Z,11.42
2022-10-22T00:58:17.949Z,11.43
2022-10-22T00:59:17.995Z,11.43
2022-10-22T01:00:18.029Z,11.43
2022-10-22T01:01:18.162Z,11.42
2022-10-22T01:02:18.099Z,11.42
2022-10-22T01:03:18.139Z,11.37
2022-10-22T01:04:18.174Z,11.37
2022-10-22T01:05:18.225Z,11.38
2022-10-22T01:06:18.259Z,11.4
2022-10-22T01:07:18.299Z,11.42
2022-10-22T01:08:18.334Z,11.45
2022-10-22T01:09:18.360Z,11.45
2022-10-22T01:10:18.393Z,11.47
2022-10-22T01:11:18.421Z,11.49
2022-10-22T01:12:18.448Z,11.5
2022-10-22T01:13:18.499Z,11.52
2022-10-22T01:14:18.512Z,11.53
2022-10-22T01:15:18.540Z,11.54
2022-10-22T01:16:18.577Z,11.55
2022-10-22T01:17:18.640Z,11.56
2022-10-22T01:18:18.654Z,11.57
2022-10-22T01:19:18.677Z,11.58
2022-10-22T01:20:18.715Z,11.61
2022-10-22T01:21:18.750Z,11.64
2022-10-22T01:22:18.802Z,11.65
2022-10-22T01:23:18.825Z,11.63
2022-10-22T01:24:18.862Z,11.61
2022-10-22T01:25:18.897Z,11.62
2022-10-22T01:26:18.972Z,11.61
2022-10-22T01:27:18.981Z,11.61
2022-10-22T01:28:19.019Z,11.61
2022-10-22T01:29:19.058Z,11.59
2022-10-22T01:30:19.109Z,11.58
2022-10-22T01:31:19.136Z,11.57
2022-10-22T01:32:19.170Z,11.56
2022-10-22T01:33:19.217Z,11.56
2022-10-22T01:34:19.263Z,11.53
2022-10-22T01:35:19.288Z,11.49
2022-10-22T01:36:19.314Z,11.49
2022-10-22T01:37:19.355Z,11.5
2022-10-22T01:38:19.401Z,11.52
2022-10-22T01:39:19.433Z,11.53
2022-10-22T01:40:19.461Z,11.5
2022-10-22T01:41:19.505Z,11.48
2022-10-22T01:42:19.547Z,11.48
2022-10-22T01:43:19.579Z,11.48
2022-10-22T01:44:19.608Z,11.48
2022-10-22T01:45:19.643Z,11.48
2022-10-22T01:46:19.682Z,11.48
2022-10-22T01:47:19.728Z,11.48
2022-10-22T01:48:19.754Z,11.49
2022-10-22T01:49:19.787Z,11.5
2022-10-22T01:50:19.825Z,11.51
2022-10-22T01:51:19.872Z,11.53
2022-10-22T01:52:19.901Z,11.53
2022-10-22T01:53:19.935Z,11.54
2022-10-22T01:54:19.975Z,11.54
2022-10-22T01:55:20.027Z,11.54
2022-10-22T01:56:20.047Z,11.51
2022-10-22T01:57:20.077Z,11.5
2022-10-22T01:58:20.118Z,11.47
2022-10-22T01:59:20.161Z,11.45
2022-10-22T02:00:20.194Z,11.41
2022-10-22T02:01:20.225Z,11.4
2022-10-22T02:02:20.263Z,11.4
2022-10-22T02:03:22.933Z,11.39
2022-10-22T02:04:20.351Z,11.38
2022-10-22T02:05:20.380Z,11.38
2022-10-22T02:06:20.415Z,11.38
2022-10-22T02:07:20.471Z,11.38
2022-10-22T02:08:20.509Z,11.4
2022-10-22T02:09:20.537Z,11.41
2022-10-22T02:10:20.567Z,11.38
2022-10-22T02:11:20.605Z,11.39
2022-10-22T02:12:20.648Z,11.38
2022-10-22T02:13:20.676Z,11.37
2022-10-22T02:14:20.715Z,11.35
2022-10-22T02:15:20.762Z,11.33
2022-10-22T02:16:20.806Z,11.32
2022-10-22T02:17:20.841Z,11.31
2022-10-22T02:18:20.870Z,11.3
2022-10-22T02:19:20.913Z,11.29
2022-10-22T02:20:20.963Z,11.29
2022-10-22T02:21:20.983Z,11.3
2022-10-22T02:22:21.014Z,11.31
2022-10-22T02:23:21.057Z,11.32
2022-10-22T02:24:21.100Z,11.31
2022-10-22T02:25:21.131Z,11.26
2022-10-22T02:26:21.160Z,11.26
2022-10-22T02:27:25.829Z,11.26
2022-10-22T02:28:21.245Z,11.26
2022-10-22T02:29:21.284Z,11.26
2022-10-22T02:30:21.314Z,11.23
2022-10-22T02:31:21.342Z,11.22
2022-10-22T02:32:21.380Z,11.18
2022-10-22T02:33:21.413Z,11.2
2022-10-22T02:34:21.446Z,11.21
2022-10-22T02:35:21.471Z,11.21
2022-10-22T02:36:21.508Z,11.21
2022-10-22T02:37:21.568Z,11.22
2022-10-22T02:38:21.580Z,11.22
2022-10-22T02:39:21.614Z,11.22
2022-10-22T02:40:21.644Z,11.22
2022-10-22T02:41:21.674Z,11.22
2022-10-22T02:42:21.700Z,11.21
2022-10-22T02:43:21.728Z,11.19
2022-10-22T02:44:21.769Z,11.18
2022-10-22T02:45:21.801Z,11.18
2022-10-22T02:46:21.835Z,11.18
2022-10-22T02:47:21.866Z,11.18
2022-10-22T02:48:21.905Z,11.19
2022-10-22T02:49:21.934Z,11.19
2022-10-22T02:50:21.968Z,11.2
2022-10-22T02:51:22.120Z,11.22
2022-10-22T02:52:22.037Z,11.24
2022-10-22T02:53:22.076Z,11.24
2022-10-22T02:54:22.123Z,11.24
2022-10-22T02:55:22.137Z,11.24
2022-10-22T02:56:22.163Z,11.24
2022-10-22T02:57:22.244Z,11.23
2022-10-22T02:58:22.231Z,11.2
2022-10-22T02:59:22.267Z,11.18
2022-10-22T03:00:22.337Z,11.17
2022-10-22T03:01:22.445Z,11.17
2022-10-22T03:02:22.358Z,11.16
2022-10-22T03:03:22.388Z,11.16
2022-10-22T03:04:22.421Z,11.17
2022-10-22T03:05:22.459Z,11.18
2022-10-22T03:06:22.570Z,11.2
2022-10-22T03:07:22.533Z,11.2
2022-10-22T03:08:22.559Z,11.2
2022-10-22T03:09:24.743Z,11.2
2022-10-22T03:10:22.637Z,11.2
2022-10-22T03:11:22.669Z,11.21
2022-10-22T03:12:22.702Z,11.21
2022-10-22T03:13:22.756Z,11.22
2022-10-22T03:14:22.779Z,11.22
2022-10-22T03:15:22.854Z,11.22
2022-10-22T03:16:22.839Z,11.22
2022-10-22T03:17:22.877Z,11.22
2022-10-22T03:18:22.909Z,11.22
2022-10-22T03:19:22.942Z,11.25
2022-10-22T03:20:22.978Z,11.22
2022-10-22T03:21:23.012Z,11.22
2022-10-22T03:22:23.043Z,11.21
2022-10-22T03:23:23.084Z,11.17
2022-10-22T03:24:23.102Z,11.13
2022-10-22T03:25:23.143Z,11.12
2022-10-22T03:26:23.178Z,11.11
2022-10-22T03:27:23.217Z,11.12
2022-10-22T03:28:23.259Z,11.13
2022-10-22T03:29:23.289Z,11.14
2022-10-22T03:30:23.316Z,11.13
2022-10-22T03:31:23.352Z,11.15
2022-10-22T03:32:23.393Z,11.15
2022-10-22T03:33:23.423Z,11.14
2022-10-22T03:34:23.461Z,11.15
2022-10-22T03:35:23.494Z,11.15
2022-10-22T03:36:23.531Z,11.14
2022-10-22T03:37:23.571Z,11.12
2022-10-22T03:38:23.599Z,11.11
2022-10-22T03:39:23.625Z,11.11
2022-10-22T03:40:23.652Z,11.03
2022-10-22T03:41:23.687Z,11.05
2022-10-22T03:42:23.716Z,11.05
2022-10-22T03:43:23.751Z,11.07
2022-10-22T03:44:23.780Z,11.06
2022-10-22T03:45:23.876Z,11.06
2022-10-22T03:46:23.850Z,11.05
2022-10-22T03:47:23.878Z,11.05
2022-10-22T03:48:23.915Z,11.05
2022-10-22T03:49:23.945Z,11.06
2022-10-22T03:50:23.976Z,11.05
2022-10-22T03:51:24.009Z,11.04
2022-10-22T03:52:24.048Z,11.03
2022-10-22T03:53:24.077Z,11.03
2022-10-22T03:54:24.116Z,11.03
2022-10-22T03:55:24.150Z,11.03
2022-10-22T03:56:24.185Z,11.03
2022-10-22T03:57:24.214Z,11.03
2022-10-22T03:58:24.245Z,11.03
2022-10-22T03:59:24.275Z,11.02
2022-10-22T04:00:24.311Z,11.03
2022-10-22T04:01:24.427Z,11.06
2022-10-22T04:02:24.373Z,11.05
2022-10-22T04:03:24.411Z,11.06
2022-10-22T04:04:24.447Z,11.06
2022-10-22T04:05:24.482Z,11.02
2022-10-22T04:06:24.512Z,11.01
2022-10-22T04:07:24.551Z,11
2022-10-22T04:08:24.587Z,11
2022-10-22T04:09:24.619Z,11
2022-10-22T04:10:24.654Z,11
2022-10-22T04:11:24.677Z,10.97
2022-10-22T04:12:24.709Z,10.97
2022-10-22T04:13:24.740Z,10.97
2022-10-22T04:14:24.779Z,10.96
2022-10-22T04:15:24.809Z,10.96
2022-10-22T04:16:27.400Z,10.96
2022-10-22T04:17:24.872Z,10.98
2022-10-22T04:18:24.897Z,10.99
2022-10-22T04:19:24.936Z,11
2022-10-22T04:20:24.971Z,11
2022-10-22T04:21:25.000Z,11.01
2022-10-22T04:22:25.034Z,11.02
2022-10-22T04:23:25.066Z,11.02
2022-10-22T04:24:25.104Z,11.02
2022-10-22T04:25:25.155Z,11.03
2022-10-22T04:26:25.167Z,11.02
2022-10-22T04:27:25.204Z,11.02
2022-10-22T04:28:25.236Z,11.02
2022-10-22T04:29:25.269Z,11.02
2022-10-22T04:30:25.301Z,11.03
2022-10-22T04:31:25.330Z,11.02
2022-10-22T04:32:25.372Z,11.01
2022-10-22T04:33:25.407Z,11
2022-10-22T04:34:25.445Z,10.98
2022-10-22T04:36:25.511Z,10.95
2022-10-22T04:37:25.543Z,10.94
2022-10-22T04:38:25.581Z,10.92
2022-10-22T04:39:25.613Z,10.94
2022-10-22T04:40:25.643Z,10.95
2022-10-22T04:41:25.677Z,10.95
2022-10-22T04:42:25.707Z,10.96
2022-10-22T04:43:25.735Z,10.96
2022-10-22T04:44:25.774Z,10.96
2022-10-22T04:45:25.808Z,10.95
2022-10-22T04:46:25.839Z,10.92
2022-10-22T04:47:25.879Z,10.92
2022-10-22T04:48:25.916Z,10.93
2022-10-22T04:49:25.952Z,10.93
2022-10-22T04:50:25.984Z,10.93
2022-10-22T04:51:26.016Z,10.93
2022-10-22T04:52:26.040Z,10.94
2022-10-22T04:53:26.074Z,10.94
2022-10-22T04:54:29.017Z,10.89
2022-10-22T04:55:26.185Z,10.88
2022-10-22T04:56:26.175Z,10.88
2022-10-22T04:57:26.207Z,10.87
2022-10-22T04:58:26.233Z,10.84
2022-10-22T04:59:26.259Z,10.84
2022-10-22T05:00:26.286Z,10.84
2022-10-22T05:01:26.403Z,10.85
2022-10-22T05:02:26.343Z,10.85
2022-10-22T05:03:26.380Z,10.85
2022-10-22T05:04:26.411Z,10.84
2022-10-22T05:05:26.453Z,10.84
2022-10-22T05:06:26.493Z,10.78
2022-10-22T05:07:26.518Z,10.77
2022-10-22T05:08:26.550Z,10.77
2022-10-22T05:09:26.583Z,10.77
2022-10-22T05:10:26.620Z,10.75
2022-10-22T05:11:26.644Z,10.74
2022-10-22T05:12:26.675Z,10.73
2022-10-22T05:13:26.709Z,10.74
2022-10-22T05:14:26.751Z,10.74
2022-10-22T05:15:26.787Z,10.73
2022-10-22T05:16:26.815Z,10.72
2022-10-22T05:17:26.839Z,10.73
2022-10-22T05:18:26.866Z,10.68
2022-10-22T05:19:26.903Z,10.72
2022-10-22T05:20:26.935Z,10.7
2022-10-22T05:21:26.964Z,10.69
2022-10-22T05:22:26.992Z,10.69
2022-10-22T05:23:27.023Z,10.68
2022-10-22T05:24:27.053Z,10.7
2022-10-22T05:25:27.087Z,10.66
2022-10-22T05:26:27.124Z,10.64
2022-10-22T05:27:27.154Z,10.62
2022-10-22T05:28:27.177Z,10.63
2022-10-22T05:29:27.297Z,10.64
2022-10-22T05:30:27.253Z,10.65
2022-10-22T05:31:27.283Z,10.66
2022-10-22T05:32:27.319Z,10.67
2022-10-22T05:33:27.358Z,10.66
2022-10-22T05:34:27.480Z,10.66
2022-10-22T05:35:27.410Z,10.65
2022-10-22T05:36:27.444Z,10.64
2022-10-22T05:37:27.471Z,10.63
2022-10-22T05:38:27.500Z,10.64
2022-10-22T05:39:27.532Z,10.64
2022-10-22T05:40:31.066Z,10.63
2022-10-22T05:41:27.592Z,10.64
2022-10-22T05:42:27.621Z,10.62
2022-10-22T05:43:27.667Z,10.62
2022-10-22T05:44:27.680Z,10.62
2022-10-22T05:45:27.714Z,10.58
2022-10-22T05:46:27.748Z,10.57
2022-10-22T05:47:27.775Z,10.57
2022-10-22T05:48:27.886Z,10.55
2022-10-22T05:49:27.836Z,10.55
2022-10-22T05:50:27.870Z,10.54
2022-10-22T05:51:27.901Z,10.54
2022-10-22T05:52:27.927Z,10.51
2022-10-22T05:53:27.969Z,10.52
2022-10-22T05:54:27.986Z,10.53
2022-10-22T05:55:28.016Z,10.53
2022-10-22T05:56:28.060Z,10.53
2022-10-22T05:57:28.086Z,10.54
2022-10-22T05:58:28.121Z,10.54
2022-10-22T05:59:28.155Z,10.55
2022-10-22T06:00:28.191Z,10.56
2022-10-22T06:01:28.227Z,10.58
2022-10-22T06:02:28.289Z,10.57
2022-10-22T06:03:28.290Z,10.57
2022-10-22T06:04:28.318Z,10.58
2022-10-22T06:05:28.345Z,10.59
2022-10-22T06:06:28.380Z,10.59
2022-10-22T06:07:28.405Z,10.58
2022-10-22T06:08:28.437Z,10.56
2022-10-22T06:09:28.524Z,10.54
2022-10-22T06:10:28.568Z,10.53
2022-10-22T06:11:31.130Z,10.52
2022-10-22T06:12:28.547Z,10.52
2022-10-22T06:13:28.586Z,10.52
2022-10-22T06:14:28.620Z,10.52
2022-10-22T06:15:28.656Z,10.52
2022-10-22T06:16:28.695Z,10.56
2022-10-22T06:17:28.731Z,10.55
2022-10-22T06:18:28.792Z,10.55
2022-10-22T06:19:28.801Z,10.57
2022-10-22T06:20:28.828Z,10.56
2022-10-22T06:21:28.860Z,10.55
2022-10-22T06:22:28.901Z,10.55
2022-10-22T06:23:28.933Z,10.57
2022-10-22T06:24:28.966Z,10.57
2022-10-22T06:25:29.002Z,10.58
2022-10-22T06:26:29.037Z,10.59
2022-10-22T06:27:29.071Z,10.6
2022-10-22T06:28:29.106Z,10.62
2022-10-22T06:29:29.140Z,10.63
2022-10-22T06:30:29.177Z,10.64
2022-10-22T06:31:29.201Z,10.65
2022-10-22T06:32:29.232Z,10.64
2022-10-22T06:33:29.257Z,10.65
2022-10-22T06:34:29.290Z,10.66
2022-10-22T06:35:29.324Z,10.68
2022-10-22T06:36:29.437Z,10.69
2022-10-22T06:37:29.393Z,10.69
2022-10-22T06:38:29.420Z,10.76
2022-10-22T06:39:29.444Z,10.74
2022-10-22T06:40:29.479Z,10.76
2022-10-22T06:41:29.782Z,10.76
2022-10-22T06:42:29.538Z,10.76
2022-10-22T06:43:29.565Z,10.75
2022-10-22T06:44:29.590Z,10.76
2022-10-22T06:45:29.621Z,10.75
2022-10-22T06:46:29.645Z,10.78
2022-10-22T06:47:29.670Z,10.78
2022-10-22T06:48:29.702Z,10.78
2022-10-22T06:49:29.734Z,10.78
2022-10-22T06:50:29.764Z,10.78
2022-10-22T06:51:29.786Z,10.83
2022-10-22T06:52:29.825Z,10.83
2022-10-22T06:53:29.848Z,10.86
2022-10-22T06:54:29.881Z,10.86
2022-10-22T06:55:29.912Z,10.9
2022-10-22T06:56:29.943Z,10.9
2022-10-22T06:57:29.971Z,10.89
2022-10-22T06:58:30.006Z,10.91
2022-10-22T06:59:30.042Z,10.91
2022-10-22T07:00:30.137Z,10.92
2022-10-22T07:01:30.213Z,10.98
2022-10-22T07:02:30.146Z,11
2022-10-22T07:03:30.173Z,11
2022-10-22T07:04:30.207Z,11.03
2022-10-22T07:05:30.239Z,11.07
2022-10-22T07:06:30.273Z,11.07
2022-10-22T07:07:30.314Z,11.09
2022-10-22T07:08:30.344Z,11.11
2022-10-22T07:09:30.369Z,11.09
2022-10-22T07:10:30.858Z,11.1
2022-10-22T07:11:30.431Z,11.1
2022-10-22T07:12:30.465Z,11.1
2022-10-22T07:13:30.500Z,11.12
2022-10-22T07:14:30.528Z,11.17
2022-10-22T07:15:30.560Z,11.19
2022-10-22T07:16:32.451Z,11.19
2022-10-22T07:17:30.711Z,11.22
2022-10-22T07:18:30.659Z,11.26
2022-10-22T07:19:30.697Z,11.27
2022-10-22T07:20:30.715Z,11.27
2022-10-22T07:21:30.759Z,11.29
2022-10-22T07:22:30.776Z,11.34
2022-10-22T07:23:30.809Z,11.37
2022-10-22T07:24:30.840Z,11.38
2022-10-22T07:25:30.870Z,11.38
2022-10-22T07:26:31.198Z,11.39
2022-10-22T07:27:30.925Z,11.48
2022-10-22T07:28:30.955Z,11.48
2022-10-22T07:29:30.988Z,11.48
2022-10-22T07:30:31.022Z,11.51
2022-10-22T07:31:31.055Z,11.5
2022-10-22T07:32:31.088Z,11.5
2022-10-22T07:33:31.129Z,11.53
2022-10-22T07:34:31.175Z,11.55
2022-10-22T07:35:31.203Z,11.56
2022-10-22T07:36:31.241Z,11.6
2022-10-22T07:37:31.277Z,11.6
2022-10-22T07:38:31.296Z,11.61
2022-10-22T07:39:31.340Z,11.61
2022-10-22T07:40:31.371Z,11.68
2022-10-22T07:41:31.399Z,11.67
2022-10-22T07:42:31.434Z,11.69
2022-10-22T07:43:31.469Z,11.69
2022-10-22T07:44:31.507Z,11.69
2022-10-22T07:45:31.544Z,11.7
2022-10-22T07:46:31.572Z,11.67
2022-10-22T07:47:31.599Z,11.73
2022-10-22T07:48:31.633Z,11.75
2022-10-22T07:49:31.670Z,11.78
2022-10-22T07:50:31.779Z,11.81
2022-10-22T07:51:31.730Z,11.81
2022-10-22T07:52:31.761Z,11.83
2022-10-22T07:53:31.787Z,11.83
2022-10-22T07:54:31.814Z,11.83
2022-10-22T07:55:31.844Z,11.84
2022-10-22T07:56:31.877Z,11.86
2022-10-22T07:57:31.910Z,11.84
2022-10-22T07:58:31.944Z,11.84
2022-10-22T07:59:31.978Z,11.85
2022-10-22T08:00:32.004Z,11.85
2022-10-22T08:01:32.085Z,11.87
2022-10-22T08:02:32.071Z,11.88
2022-10-22T08:03:32.106Z,11.91
2022-10-22T08:04:32.144Z,11.93
2022-10-22T08:05:32.170Z,11.93
2022-10-22T08:06:32.204Z,11.93
2022-10-22T08:07:32.230Z,11.94
2022-10-22T08:08:32.336Z,11.96
2022-10-22T08:09:32.289Z,12
2022-10-22T08:10:32.323Z,11.99
2022-10-22T08:11:32.360Z,11.99
2022-10-22T08:12:32.385Z,12.04
2022-10-22T08:13:32.420Z,12.03
2022-10-22T08:14:32.444Z,12.03
2022-10-22T08:15:32.493Z,12.06
2022-10-22T08:16:32.509Z,12.05
2022-10-22T08:17:32.545Z,12.05
2022-10-22T08:18:32.568Z,12.1
2022-10-22T08:19:32.595Z,12.1
2022-10-22T08:20:32.653Z,12.11
2022-10-22T08:21:32.662Z,12.14
2022-10-22T08:22:32.690Z,12.15
2022-10-22T08:23:32.716Z,12.18
2022-10-22T08:24:32.750Z,12.21
2022-10-22T08:25:32.786Z,12.2
2022-10-22T08:26:32.815Z,12.2
2022-10-22T08:27:32.844Z,12.2
2022-10-22T08:28:32.868Z,12.2
2022-10-22T08:29:32.890Z,12.18
2022-10-22T08:30:32.915Z,12.23
2022-10-22T08:31:32.951Z,12.24
2022-10-22T08:32:32.989Z,12.29
2022-10-22T08:33:33.017Z,12.29
2022-10-22T08:34:33.047Z,12.29
2022-10-22T08:35:33.076Z,12.3
2022-10-22T08:36:33.108Z,12.31
2022-10-22T08:37:33.134Z,12.33
2022-10-22T08:38:33.161Z,12.32
2022-10-22T08:39:33.197Z,12.37
2022-10-22T08:40:33.231Z,12.39
2022-10-22T08:41:33.264Z,12.4
2022-10-22T08:42:33.301Z,12.47
2022-10-22T08:43:33.332Z,12.49
2022-10-22T08:44:33.363Z,12.47
2022-10-22T08:45:33.388Z,12.47
2022-10-22T08:46:33.418Z,12.51
2022-10-22T08:47:33.454Z,12.51
2022-10-22T08:48:33.489Z,12.53
2022-10-22T08:49:35.129Z,12.5
2022-10-22T08:50:33.553Z,12.49
2022-10-22T08:51:33.591Z,12.49
2022-10-22T08:52:33.629Z,12.5
2022-10-22T08:53:33.658Z,12.54
2022-10-22T08:54:33.681Z,12.52
2022-10-22T08:55:36.611Z,12.51
2022-10-22T08:56:33.753Z,12.51
2022-10-22T08:57:33.785Z,12.48
2022-10-22T08:58:33.813Z,12.49
2022-10-22T08:59:33.844Z,12.48
2022-10-22T09:00:33.872Z,12.48
2022-10-22T09:01:33.903Z,12.48
2022-10-22T09:02:33.930Z,12.53
2022-10-22T09:03:33.960Z,12.53
2022-10-22T09:04:33.988Z,12.56
2022-10-22T09:05:34.026Z,12.53
2022-10-22T09:06:34.054Z,12.52
2022-10-22T09:07:34.084Z,12.52
2022-10-22T09:08:34.203Z,12.53
2022-10-22T09:09:34.145Z,12.49
2022-10-22T09:10:34.178Z,12.51
2022-10-22T09:11:34.209Z,12.53
2022-10-22T09:12:34.242Z,12.55
2022-10-22T09:13:34.277Z,12.58
2022-10-22T09:14:34.301Z,12.57
2022-10-22T09:15:34.335Z,12.58
2022-10-22T09:16:34.407Z,12.55
2022-10-22T09:17:34.411Z,12.53
2022-10-22T09:18:34.441Z,12.57
2022-10-22T09:19:34.469Z,12.57
2022-10-22T09:20:34.499Z,12.6
2022-10-22T09:21:34.536Z,12.61
2022-10-22T09:23:34.614Z,12.59
2022-10-22T09:24:34.639Z,12.57
2022-10-22T09:25:34.671Z,12.62
2022-10-22T09:26:34.705Z,12.61
2022-10-22T09:27:34.760Z,12.6
2022-10-22T09:28:34.794Z,12.6
2022-10-22T09:29:34.831Z,12.67
2022-10-22T09:30:34.852Z,12.7
2022-10-22T09:31:34.884Z,12.71
2022-10-22T09:32:34.927Z,12.72
2022-10-22T09:33:34.979Z,12.75
2022-10-22T09:34:35.002Z,12.74
2022-10-22T09:35:35.039Z,12.79
2022-10-22T09:36:35.072Z,12.76
2022-10-22T09:37:35.122Z,12.76
2022-10-22T09:38:35.165Z,12.77
2022-10-22T09:39:35.196Z,12.74
2022-10-22T09:40:35.218Z,12.74
2022-10-22T09:41:35.252Z,12.76
2022-10-22T09:42:35.285Z,12.76
2022-10-22T09:43:35.318Z,12.77
2022-10-22T09:44:35.351Z,12.8
2022-10-22T09:45:35.375Z,12.77
2022-10-22T09:46:35.413Z,12.77
2022-10-22T09:47:43.207Z,12.76
2022-10-22T09:48:35.466Z,12.78
2022-10-22T09:49:35.499Z,12.78
2022-10-22T09:50:35.525Z,12.76
2022-10-22T09:51:35.553Z,12.75
2022-10-22T09:52:35.585Z,12.74
2022-10-22T09:53:35.608Z,12.73
2022-10-22T09:54:35.644Z,12.76
2022-10-22T09:55:35.671Z,12.8
2022-10-22T09:56:35.705Z,12.86
2022-10-22T09:57:36.604Z,12.85
2022-10-22T09:58:35.763Z,12.83
2022-10-22T09:59:35.802Z,12.84
2022-10-22T10:00:35.840Z,12.84
2022-10-22T10:01:35.871Z,12.85
2022-10-22T10:02:38.487Z,12.83
2022-10-22T10:03:35.936Z,12.83
2022-10-22T10:04:35.965Z,12.88
2022-10-22T10:05:35.999Z,12.9
2022-10-22T10:06:36.026Z,12.9
2022-10-22T10:07:36.061Z,12.91
2022-10-22T10:08:36.144Z,12.9
2022-10-22T10:09:36.130Z,12.92
2022-10-22T10:10:36.172Z,12.9
2022-10-22T10:11:36.221Z,12.99
2022-10-22T10:12:36.397Z,12.98
2022-10-22T10:13:36.286Z,13.03
2022-10-22T10:14:36.309Z,13.03
2022-10-22T10:15:36.350Z,13.03
2022-10-22T10:16:36.393Z,13.03
2022-10-22T10:17:36.432Z,13.03
2022-10-22T10:18:36.461Z,13.04
2022-10-22T10:19:36.498Z,13.01
2022-10-22T10:20:36.535Z,13.01
2022-10-22T10:21:36.579Z,13.02
2022-10-22T10:22:36.624Z,13.03
2022-10-22T10:23:36.648Z,13
2022-10-22T10:24:36.672Z,13.03
2022-10-22T10:25:36.705Z,13.03
2022-10-22T10:26:36.742Z,13.03
2022-10-22T10:27:36.788Z,13.02
2022-10-22T10:28:36.822Z,13
2022-10-22T10:30:36.879Z,13.04
2022-10-22T10:31:36.915Z,13.06
2022-10-22T10:32:36.959Z,13.04
2022-10-22T10:33:37.010Z,13.04
2022-10-22T10:34:37.041Z,13.04
2022-10-22T10:35:37.068Z,13.06
2022-10-22T10:36:37.099Z,13.04
2022-10-22T10:37:37.142Z,13.09
2022-10-22T10:38:37.195Z,13.09
2022-10-22T10:39:37.236Z,13.15
2022-10-22T10:40:37.260Z,13.2
2022-10-22T10:41:37.291Z,13.29
2022-10-22T10:42:37.319Z,13.32
2022-10-22T10:43:37.355Z,13.33
2022-10-22T10:44:37.404Z,13.37
2022-10-22T10:45:37.439Z,13.41
2022-10-22T10:46:37.465Z,13.48
2022-10-22T10:47:37.497Z,13.67
2022-10-22T10:48:37.530Z,13.74
2022-10-22T10:49:37.575Z,13.69
2022-10-22T10:50:37.617Z,13.75
2022-10-22T10:51:37.639Z,13.76
2022-10-22T10:52:37.672Z,13.76
2022-10-22T10:53:37.709Z,13.81
2022-10-22T10:55:37.797Z,13.89
2022-10-22T10:56:39.238Z,13.86
2022-10-22T10:57:38.036Z,13.92
2022-10-22T10:58:37.886Z,13.93
2022-10-22T10:59:37.926Z,13.92
2022-10-22T11:00:37.966Z,13.98
2022-10-22T11:01:38.066Z,14.03
2022-10-22T11:02:38.042Z,14.02
2022-10-22T11:03:38.069Z,14.08
2022-10-22T11:04:38.102Z,14.09
2022-10-22T11:05:38.143Z,14.16
2022-10-22T11:06:38.177Z,14.13
2022-10-22T11:07:38.211Z,14.15
2022-10-22T11:08:38.315Z,14.2
2022-10-22T11:09:38.278Z,14.23
2022-10-22T11:10:38.319Z,14.23
2022-10-22T11:11:38.366Z,14.27
2022-10-22T11:12:38.659Z,14.31
2022-10-22T11:13:38.439Z,14.36
2022-10-22T11:14:38.473Z,14.36
2022-10-22T11:15:38.511Z,14.33
2022-10-22T11:16:38.552Z,14.42
2022-10-22T11:17:38.600Z,14.39
2022-10-22T11:18:38.630Z,14.42
2022-10-22T11:19:50.974Z,14.51
2022-10-22T11:20:38.697Z,14.52
2022-10-22T11:21:38.735Z,14.59
2022-10-22T11:22:42.155Z,14.57
2022-10-22T11:23:38.821Z,14.54
2022-10-22T11:24:38.850Z,14.57
2022-10-22T11:25:38.878Z,14.61
2022-10-22T11:26:38.915Z,14.61
2022-10-22T11:27:39.391Z,14.62
2022-10-22T11:28:39.001Z,14.62
2022-10-22T11:29:39.023Z,14.64
2022-10-22T11:30:39.059Z,14.63
2022-10-22T11:31:39.095Z,14.67
2022-10-22T11:32:39.358Z,14.76
2022-10-22T11:33:39.188Z,14.78
2022-10-22T11:34:39.212Z,14.86
2022-10-22T11:35:39.244Z,14.96
2022-10-22T11:36:39.281Z,14.96
2022-10-22T11:37:39.652Z,14.94
2022-10-22T11:38:39.360Z,14.99
2022-10-22T11:39:39.406Z,14.96
2022-10-22T11:40:39.429Z,14.96
2022-10-22T11:41:39.455Z,15.09
2022-10-22T11:42:39.494Z,15.11
2022-10-22T11:43:39.535Z,15.08
2022-10-22T11:44:39.621Z,15.05
2022-10-22T11:45:39.616Z,15.04
2022-10-22T11:46:39.639Z,15.08
2022-10-22T11:47:39.897Z,15.11
2022-10-22T11:48:39.720Z,15.15
2022-10-22T11:49:39.769Z,15.15
2022-10-22T11:50:39.792Z,15.16
2022-10-22T11:51:39.822Z,15.2
2022-10-22T11:52:39.848Z,15.16
2022-10-22T11:53:39.893Z,15.17
2022-10-22T11:54:39.935Z,15.19
2022-10-22T11:55:39.977Z,15.12
2022-10-22T11:56:40.002Z,15.09
2022-10-22T11:57:40.255Z,15.12
2022-10-22T11:58:40.071Z,15.11
2022-10-22T11:59:40.119Z,15.22
2022-10-22T12:00:40.184Z,15.21
2022-10-22T12:01:40.191Z,15.18
2022-10-22T12:02:40.515Z,15.19
2022-10-22T12:03:40.261Z,15.18
2022-10-22T12:04:40.347Z,15.22
2022-10-22T12:05:40.342Z,15.22
2022-10-22T12:06:40.369Z,15.26
2022-10-22T12:07:40.395Z,15.26
2022-10-22T12:08:40.459Z,15.25
2022-10-22T12:09:40.515Z,15.25
2022-10-22T12:10:40.508Z,15.28
2022-10-22T12:11:40.554Z,15.27
2022-10-22T12:12:40.832Z,15.29
2022-10-22T12:13:40.611Z,15.28
2022-10-22T12:14:40.648Z,15.23
2022-10-22T12:15:40.686Z,15.29
2022-10-22T12:16:56.593Z,15.28
2022-10-22T12:17:40.754Z,15.24
2022-10-22T12:18:40.782Z,15.33
2022-10-22T12:19:40.818Z,15.34
2022-10-22T12:20:40.860Z,15.35
2022-10-22T12:21:40.903Z,15.36
2022-10-22T12:22:41.311Z,15.35
2022-10-22T12:23:40.962Z,15.31
2022-10-22T12:24:40.998Z,15.25
2022-10-22T12:25:41.041Z,15.24
2022-10-22T12:26:41.093Z,15.23
2022-10-22T12:27:41.486Z,15.27
2022-10-22T12:28:41.155Z,15.34
2022-10-22T12:29:41.189Z,15.32
2022-10-22T12:30:41.226Z,15.31
2022-10-22T12:31:41.269Z,15.3
2022-10-22T12:32:41.312Z,15.34
2022-10-22T12:33:41.338Z,15.35
2022-10-22T12:34:41.486Z,15.35
2022-10-22T12:35:41.414Z,15.27
2022-10-22T12:36:41.457Z,15.25
2022-10-22T12:37:41.793Z,15.26
2022-10-22T12:38:41.528Z,15.26
2022-10-22T12:39:41.549Z,15.26
2022-10-22T12:40:44.562Z,15.3
2022-10-22T12:41:41.622Z,15.26
2022-10-22T12:42:41.665Z,15.21
2022-10-22T12:43:41.698Z,15.17
2022-10-22T12:44:41.727Z,15.19
2022-10-22T12:45:41.754Z,15.24
2022-10-22T12:46:41.799Z,15.2
2022-10-22T12:47:42.122Z,15.13
2022-10-22T12:48:41.888Z,15.13
2022-10-22T12:49:41.913Z,15.16
2022-10-22T12:50:41.946Z,15.17
2022-10-22T12:51:41.980Z,15.13
2022-10-22T12:52:42.570Z,15.13
2022-10-22T12:53:42.057Z,15.14
2022-10-22T12:54:42.098Z,15.19
2022-10-22T12:55:42.142Z,15.19
2022-10-22T12:56:42.174Z,15.18
2022-10-22T12:57:42.217Z,15.12
2022-10-22T12:58:42.276Z,15.11
2022-10-22T12:59:45.911Z,15.14
2022-10-22T13:00:42.392Z,15.13